Terminal Aerodrome Forecast
Issued by NWS

Home | Current Version | Previous Version | Text Only | Print | Product List | Glossary On
Versions: 1 2 3 4 5 6 7 8 9 10 11 12 13 14 15 16 17
000
FTAK31 PANC 250533 AAA
TAFACD
TAF AMD
PACD 250533Z 2506/2606 12013KT P6SM SCT050
     FM251800 09010KT P6SM BKN025
     FM252100 08015KT P6SM FEW250=

USA.gov is the U.S. government's official web portal to all federal, state and local government web resources and services.